Terminal Aerodrome Forecast
Issued by NWS

Home | Current Version | Previous Version | Text Only | Print | Product List | Glossary On
Versions: 1 2 3 4 5 6 7 8 9 10 11 12 13
000
FTUS45 KSLC 250534
TAF36U
TAF
K36U 250534Z 2506/2606 VRB04KT P6SM SCT070 BKN100
     FM250900 18008KT P6SM VCSH SCT040 BKN070
     FM251400 VRB05KT P6SM SCT050 BKN080
     FM251900 22011KT P6SM VCSH SCT030 BKN070
     FM260200 VRB04KT P6SM SCT050 BKN100=

USA.gov is the U.S. government's official web portal to all federal, state and local government web resources and services.